Time;durP1;ratioP1;P1;durP2;ratioP2;P2;SDS_P1;SDS_P2;PMS_P1;PMS_P2;Temp;Humidity;BMP_temperature;BMP_pressure;BME280_temperature;BME280_humidity;BME280_pressure;Samples;Min_cycle;Max_cycle;Signal;HPM_P1;HPM_P2
2022/04/07 00:00:47;;;;;;;30.85;15.25;;;;;;;8.32;100.00;97854.19;5071692;28;20078;-84
2022/04/07 00:03:12;;;;;;;29.98;15.63;;;;;;;8.31;100.00;97860.31;5074298;28;20098;-84
2022/04/07 00:05:37;;;;;;;25.73;14.48;;;;;;;8.25;100.00;97853.75;5057479;28;20491;-84
2022/04/07 00:08:04;;;;;;;28.65;14.73;;;;;;;8.30;100.00;97849.13;5057273;28;20048;-84
2022/04/07 00:10:29;;;;;;;25.95;15.20;;;;;;;8.33;100.00;97854.06;5075353;28;20080;-84
2022/04/07 00:12:54;;;;;;;26.42;15.25;;;;;;;8.27;100.00;97841.53;5075360;28;20028;-84
2022/04/07 00:15:20;;;;;;;22.20;14.05;;;;;;;8.31;100.00;97848.16;5057186;28;20036;-84
2022/04/07 00:17:46;;;;;;;19.60;12.63;;;;;;;8.26;100.00;97839.88;5057386;28;20025;-84
2022/04/07 00:20:11;;;;;;;18.77;11.75;;;;;;;8.26;100.00;97832.09;5057045;28;20101;-84
2022/04/07 00:22:37;;;;;;;18.70;13.02;;;;;;;8.19;100.00;97844.63;5057290;28;20032;-84
2022/04/07 00:25:03;;;;;;;20.15;13.10;;;;;;;8.06;100.00;97832.56;5057173;28;20033;-84
2022/04/07 00:27:28;;;;;;;22.40;15.10;;;;;;;8.01;100.00;97835.47;5057456;28;20024;-84
2022/04/07 00:29:54;;;;;;;23.00;15.80;;;;;;;7.94;100.00;97835.00;5075085;28;20377;-84
2022/04/07 00:32:19;;;;;;;27.35;18.20;;;;;;;7.89;100.00;97831.91;5056817;28;20024;-84
2022/04/07 00:34:46;;;;;;;23.65;15.32;;;;;;;7.78;100.00;97829.16;5057020;28;20035;-83
2022/04/07 00:37:12;;;;;;;23.67;13.95;;;;;;;7.70;100.00;97818.44;5056730;28;20111;-84
2022/04/07 00:39:38;;;;;;;20.40;12.55;;;;;;;7.60;100.00;97815.63;5057100;28;20124;-85
2022/04/07 00:42:04;;;;;;;19.92;13.13;;;;;;;7.55;100.00;97816.84;5074784;28;20032;-84
2022/04/07 00:44:30;;;;;;;23.77;12.13;;;;;;;7.48;100.00;97806.88;5074779;28;20029;-83
2022/04/07 00:46:55;;;;;;;20.95;12.98;;;;;;;7.46;100.00;97813.09;5056873;28;20017;-82
2022/04/07 00:49:20;;;;;;;18.67;11.98;;;;;;;7.33;100.00;97794.03;5056570;28;20468;-83
2022/04/07 00:51:49;;;;;;;22.27;11.98;;;;;;;7.37;100.00;97806.69;5056630;28;20384;-83
2022/04/07 00:54:15;;;;;;;23.45;13.00;;;;;;;7.33;100.00;97805.25;5056458;28;20115;-84
2022/04/07 00:56:41;;;;;;;18.52;12.43;;;;;;;7.30;100.00;97800.28;5074675;28;20033;-84
2022/04/07 00:59:07;;;;;;;25.70;12.70;;;;;;;7.33;100.00;97810.44;5056388;28;20028;-84
2022/04/07 01:01:33;;;;;;;20.25;12.20;;;;;;;7.27;100.00;97802.22;5031970;28;20108;-85
2022/04/07 01:03:59;;;;;;;21.45;12.27;;;;;;;7.25;100.00;97795.38;5015486;28;20124;-84
2022/04/07 01:06:24;;;;;;;15.20;10.98;;;;;;;7.24;100.00;97788.50;5015202;28;20488;-84
2022/04/07 01:08:50;;;;;;;15.95;11.00;;;;;;;7.29;100.00;97782.22;5032199;28;20485;-84
2022/04/07 01:11:17;;;;;;;20.17;11.85;;;;;;;7.35;100.00;97789.63;5015170;28;20041;-85
2022/04/07 01:13:47;;;;;;;15.68;11.60;;;;;;;7.29;100.00;97771.84;5015152;28;20041;-84
2022/04/07 01:16:14;;;;;;;20.38;11.95;;;;;;;7.41;100.00;97782.28;5015104;28;20128;-84
2022/04/07 01:18:39;;;;;;;18.42;11.73;;;;;;;7.42;100.00;97778.78;5015244;28;20124;-82
2022/04/07 01:21:06;;;;;;;21.50;13.52;;;;;;;7.51;100.00;97790.31;5014995;28;20616;-82
2022/04/07 01:23:35;;;;;;;18.05;11.82;;;;;;;7.54;100.00;97791.84;5015104;28;20039;-82
2022/04/07 01:26:04;;;;;;;17.52;11.63;;;;;;;7.54;100.00;97789.25;5015033;28;20037;-82
2022/04/07 01:28:30;;;;;;;17.80;12.32;;;;;;;7.57;100.00;97789.91;5015121;28;20620;-82
2022/04/07 01:30:55;;;;;;;15.43;11.10;;;;;;;7.54;100.00;97773.72;5031606;28;20083;-82
2022/04/07 01:33:21;;;;;;;22.60;11.07;;;;;;;7.65;100.00;97795.44;5049000;28;20037;-82
2022/04/07 01:35:47;;;;;;;14.75;10.75;;;;;;;7.62;100.00;97787.00;5073918;28;20388;-82
2022/04/07 01:38:12;;;;;;;15.95;10.82;;;;;;;7.62;100.00;97789.59;5073755;28;20028;-82
2022/04/07 01:40:38;;;;;;;15.68;10.80;;;;;;;7.58;100.00;97780.38;5055913;28;20032;-82
2022/04/07 01:43:07;;;;;;;15.48;10.57;;;;;;;7.59;100.00;97785.47;5011456;28;20552;-83
2022/04/07 01:45:34;;;;;;;15.60;9.88;;;;;;;7.52;100.00;97768.66;5011536;28;20452;-83
2022/04/07 01:48:01;;;;;;;12.93;9.65;;;;;;;7.58;100.00;97783.78;5011399;28;20553;-83
2022/04/07 01:50:29;;;;;;;10.75;8.52;;;;;;;7.54;100.00;97774.53;4971875;28;20499;-82
2022/04/07 01:52:56;;;;;;;13.95;9.45;;;;;;;7.59;100.00;97779.47;4956132;28;20031;-82
2022/04/07 01:55:22;;;;;;;16.42;9.48;;;;;;;7.49;100.00;97769.66;4972207;28;20043;-82
2022/04/07 01:57:49;;;;;;;17.42;11.43;;;;;;;7.61;100.00;97778.41;4956219;28;20469;-83
2022/04/07 02:00:15;;;;;;;22.08;11.77;;;;;;;7.64;100.00;97785.16;4955760;28;20044;-83
2022/04/07 02:02:41;;;;;;;25.17;12.73;;;;;;;7.60;100.00;97781.94;4956043;28;20045;-82
2022/04/07 02:05:11;;;;;;;30.67;14.75;;;;;;;7.49;100.00;97764.47;4955609;28;20047;-83
2022/04/07 02:07:40;;;;;;;26.25;14.95;;;;;;;7.46;100.00;97762.13;4933557;29;20567;-83
2022/04/07 02:10:07;;;;;;;25.58;15.15;;;;;;;7.39;100.00;97760.00;4933929;29;20047;-83
2022/04/07 02:12:37;;;;;;;22.77;12.88;;;;;;;7.46;100.00;97776.81;4917642;29;20130;-83
2022/04/07 02:15:03;;;;;;;24.08;13.35;;;;;;;7.39;100.00;97763.41;4985835;28;20038;-83
2022/04/07 02:17:28;;;;;;;23.80;12.75;;;;;;;7.41;100.00;97777.09;4974799;28;20042;-83
2022/04/07 02:19:57;;;;;;;19.40;11.98;;;;;;;7.36;100.00;97768.78;4991354;28;20436;-82
2022/04/07 02:22:22;;;;;;;22.90;12.88;;;;;;;7.36;100.00;97773.97;5009228;28;20038;-84
2022/04/07 02:24:48;;;;;;;19.20;12.70;;;;;;;7.29;100.00;97764.94;5013569;28;20044;-84
2022/04/07 02:27:17;;;;;;;18.27;12.48;;;;;;;7.33;100.00;97771.59;5030474;28;20037;-85
2022/04/07 02:29:43;;;;;;;21.65;12.88;;;;;;;7.32;100.00;97772.50;5013821;28;20261;-85
2022/04/07 02:32:09;;;;;;;20.55;12.18;;;;;;;7.33;100.00;97775.91;5013817;28;20529;-85
2022/04/07 02:34:35;;;;;;;21.63;12.50;;;;;;;7.33;100.00;97774.19;5013865;28;20120;-85
2022/04/07 02:37:01;;;;;;;19.38;12.10;;;;;;;7.32;100.00;97767.31;5013878;28;20053;-85
2022/04/07 02:39:26;;;;;;;18.10;12.05;;;;;;;7.33;100.00;97765.56;5048863;28;20041;-84
2022/04/07 02:41:53;;;;;;;13.38;9.35;;;;;;;7.34;100.00;97757.72;5051180;28;20043;-83
2022/04/07 02:44:19;;;;;;;9.05;6.90;;;;;;;7.44;100.00;97765.72;5052089;28;20067;-83
2022/04/07 02:46:45;;;;;;;8.98;6.40;;;;;;;7.48;100.00;97767.19;5051119;28;20029;-83
2022/04/07 02:49:10;;;;;;;8.30;6.25;;;;;;;7.56;100.00;97771.88;5050566;28;20094;-83
2022/04/07 02:51:35;;;;;;;8.75;6.70;;;;;;;7.60;100.00;97770.75;5050939;28;20021;-84
2022/04/07 02:54:01;;;;;;;11.07;6.93;;;;;;;7.47;100.00;97734.44;5029659;28;20041;-84
2022/04/07 02:56:27;;;;;;;7.68;6.18;;;;;;;7.59;100.00;97754.38;5029371;28;20132;-84
2022/04/07 02:58:53;;;;;;;8.75;6.50;;;;;;;7.49;100.00;97733.41;5029784;28;20033;-84
2022/04/07 03:01:19;;;;;;;6.45;5.50;;;;;;;7.59;100.00;97750.97;5029373;28;20037;-84
2022/04/07 03:03:44;;;;;;;10.48;7.53;;;;;;;7.54;100.00;97746.06;5029791;28;20456;-83
2022/04/07 03:06:10;;;;;;;10.73;6.47;;;;;;;7.49;100.00;97738.59;5029772;28;20026;-83
2022/04/07 03:08:35;;;;;;;9.52;6.72;;;;;;;7.57;100.00;97745.03;5029679;28;20045;-83
2022/04/07 03:11:02;;;;;;;8.43;5.97;;;;;;;7.58;100.00;97739.75;5029880;28;20056;-83
2022/04/07 03:13:27;;;;;;;8.10;5.85;;;;;;;7.65;100.00;97753.16;5029470;28;20123;-83
2022/04/07 03:15:53;;;;;;;8.82;5.80;;;;;;;7.58;100.00;97744.94;5029979;28;20152;-83
2022/04/07 03:18:19;;;;;;;7.90;5.68;;;;;;;7.62;100.00;97740.38;5029363;28;20416;-83
2022/04/07 03:20:44;;;;;;;9.80;5.93;;;;;;;7.62;100.00;97730.84;5029503;28;20091;-83
2022/04/07 03:23:10;;;;;;;8.68;5.90;;;;;;;7.67;100.00;97743.53;5029632;28;20104;-82
2022/04/07 03:25:36;;;;;;;8.55;5.72;;;;;;;7.70;100.00;97736.34;5039878;28;20033;-83
2022/04/07 03:28:05;;;;;;;8.32;5.90;;;;;;;7.78;100.00;97743.63;5050857;28;20024;-83
2022/04/07 03:30:30;;;;;;;7.35;5.25;;;;;;;7.79;100.00;97734.91;5050464;28;20112;-83
2022/04/07 03:32:55;;;;;;;8.05;5.20;;;;;;;7.85;100.00;97731.13;5050851;28;20079;-83
2022/04/07 03:35:21;;;;;;;10.57;5.57;;;;;;;7.95;100.00;97738.16;5050298;28;20017;-83
2022/04/07 03:37:46;;;;;;;8.63;5.32;;;;;;;7.95;100.00;97724.38;5050592;28;20029;-83
2022/04/07 03:40:12;;;;;;;6.63;5.22;;;;;;;8.05;100.00;97730.63;5051991;28;20064;-83
2022/04/07 03:42:38;;;;;;;7.15;5.18;;;;;;;8.10;100.00;97736.31;5052019;28;20626;-82
2022/04/07 03:45:04;;;;;;;6.03;5.22;;;;;;;8.02;100.00;97717.03;5051956;28;20108;-82
2022/04/07 03:47:30;;;;;;;5.65;4.57;;;;;;;8.06;100.00;97731.44;5051692;28;20465;-83
2022/04/07 03:49:56;;;;;;;7.80;5.20;;;;;;;7.98;100.00;97722.41;5049987;28;20045;-82
2022/04/07 03:52:21;;;;;;;8.45;5.68;;;;;;;7.96;100.00;97723.44;5050185;28;20090;-83
2022/04/07 03:54:47;;;;;;;7.88;5.57;;;;;;;7.89;100.00;97714.44;5050352;28;20021;-82
2022/04/07 03:57:12;;;;;;;8.35;5.40;;;;;;;7.91;100.00;97731.53;5050215;28;20131;-82
2022/04/07 03:59:39;;;;;;;6.72;5.50;;;;;;;7.73;100.00;97693.88;5050236;28;20025;-82
2022/04/07 04:02:06;;;;;;;8.57;5.90;;;;;;;7.86;100.00;97712.84;5050399;28;20036;-82
2022/04/07 04:04:32;;;;;;;7.05;5.75;;;;;;;7.84;100.00;97717.31;5051433;28;20029;-84
2022/04/07 04:06:58;;;;;;;6.97;5.63;;;;;;;7.85;100.00;97718.97;5051490;28;20636;-84
2022/04/07 04:09:23;;;;;;;7.82;6.05;;;;;;;7.80;100.00;97709.88;5049914;28;20021;-84
2022/04/07 04:11:49;;;;;;;10.15;6.78;;;;;;;7.81;100.00;97703.75;5051278;28;20143;-83
2022/04/07 04:14:14;;;;;;;9.25;6.55;;;;;;;7.87;100.00;97718.88;5050192;28;20017;-84
2022/04/07 04:16:41;;;;;;;6.85;5.85;;;;;;;7.88;100.00;97710.16;5050325;28;20029;-83
2022/04/07 04:19:07;;;;;;;8.75;6.45;;;;;;;7.88;100.00;97710.16;5051459;28;20052;-84
2022/04/07 04:21:32;;;;;;;7.53;6.00;;;;;;;7.87;100.00;97708.50;5049875;28;20119;-83
2022/04/07 04:23:58;;;;;;;6.45;5.63;;;;;;;7.89;100.00;97715.25;5028813;28;20393;-83
2022/04/07 04:26:23;;;;;;;7.18;6.07;;;;;;;7.83;100.00;97699.28;5012260;28;20080;-83
2022/04/07 04:28:49;;;;;;;7.13;5.38;;;;;;;7.88;100.00;97702.38;5029066;28;20124;-83
2022/04/07 04:31:14;;;;;;;6.93;5.95;;;;;;;7.89;100.00;97704.88;5029001;28;20029;-83
2022/04/07 04:33:40;;;;;;;8.20;6.22;;;;;;;7.82;100.00;97695.03;5012119;28;20103;-83
2022/04/07 04:36:05;;;;;;;7.40;6.57;;;;;;;7.86;100.00;97715.44;5012413;28;20029;-83
2022/04/07 04:38:30;;;;;;;8.20;6.22;;;;;;;7.87;100.00;97713.69;5012033;28;20444;-83
2022/04/07 04:40:56;;;;;;;9.43;6.32;;;;;;;7.84;100.00;97706.13;5012280;28;20172;-83
2022/04/07 04:43:21;;;;;;;7.80;6.43;;;;;;;7.88;100.00;97712.75;5012100;28;20421;-83
2022/04/07 04:45:47;;;;;;;8.00;6.18;;;;;;;7.69;100.00;97695.84;5012294;28;20362;-83
2022/04/07 04:48:12;;;;;;;8.63;5.97;;;;;;;7.84;100.00;97706.13;5013362;28;20025;-83
2022/04/07 04:50:38;;;;;;;7.15;5.90;;;;;;;7.87;100.00;97701.56;5015424;28;20045;-83
2022/04/07 04:53:03;;;;;;;8.27;6.35;;;;;;;7.84;100.00;97700.94;5015920;28;20030;-83
2022/04/07 04:55:28;;;;;;;9.32;6.63;;;;;;;7.92;100.00;97707.28;5041491;28;20041;-83
2022/04/07 04:57:54;;;;;;;7.38;6.25;;;;;;;7.87;100.00;97685.19;5053513;28;20025;-83
2022/04/07 05:00:19;;;;;;;6.72;5.93;;;;;;;7.99;100.00;97698.16;5053259;28;20036;-83
2022/04/07 05:02:44;;;;;;;9.32;7.07;;;;;;;8.05;100.00;97703.84;5053331;28;20116;-83
2022/04/07 05:05:11;;;;;;;9.73;6.32;;;;;;;8.05;100.00;97693.47;5053191;28;20040;-83
2022/04/07 05:07:37;;;;;;;7.38;6.47;;;;;;;8.11;100.00;97685.28;5054269;28;20059;-83
2022/04/07 05:10:04;;;;;;;8.25;6.75;;;;;;;8.17;100.00;97696.06;5054249;28;20064;-83
2022/04/07 05:12:29;;;;;;;10.43;7.40;;;;;;;8.25;100.00;97695.53;5054312;28;20029;-84
2022/04/07 05:14:54;;;;;;;10.07;7.35;;;;;;;8.26;100.00;97692.03;5054317;28;20029;-83
2022/04/07 05:17:20;;;;;;;10.98;7.65;;;;;;;8.32;100.00;97686.41;5054144;28;20028;-84
2022/04/07 05:19:45;;;;;;;12.85;7.32;;;;;;;8.41;100.00;97685.00;5053018;28;20032;-83
2022/04/07 05:22:12;;;;;;;10.95;7.15;;;;;;;8.49;100.00;97686.13;5031738;28;20030;-83
2022/04/07 05:24:37;;;;;;;8.35;6.57;;;;;;;8.43;100.00;97660.59;5014966;28;20084;-83
2022/04/07 05:27:03;;;;;;;8.85;6.90;;;;;;;8.50;100.00;97655.81;5031710;28;20158;-84
2022/04/07 05:29:28;;;;;;;11.25;7.72;;;;;;;8.72;100.00;97689.72;5014826;28;20100;-84
2022/04/07 05:31:53;;;;;;;8.80;7.15;;;;;;;8.73;100.00;97680.16;5014934;28;20044;-84
2022/04/07 05:34:19;;;;;;;11.07;7.28;;;;;;;8.85;100.00;97683.63;5015022;28;20103;-83
2022/04/07 05:36:44;;;;;;;9.52;6.95;;;;;;;8.81;100.00;97672.66;5015003;28;20124;-84
2022/04/07 05:39:10;;;;;;;8.00;5.90;;;;;;;8.91;100.00;97678.00;5031497;28;20029;-83
2022/04/07 05:41:35;;;;;;;8.52;6.18;;;;;;;8.92;100.00;97666.69;5014623;28;20091;-84
2022/04/07 05:44:01;;;;;;;8.27;6.22;;;;;;;8.97;100.00;97675.81;5014707;28;20147;-83
2022/04/07 05:46:26;;;;;;;10.13;6.78;;;;;;;9.03;100.00;97671.94;5014604;28;20087;-84
2022/04/07 05:48:51;;;;;;;8.90;6.53;;;;;;;9.00;100.00;97672.16;5031047;28;20072;-83
2022/04/07 05:51:17;;;;;;;10.65;6.35;;;;;;;8.99;100.00;97666.16;5014571;28;20045;-83
2022/04/07 05:53:42;;;;;;;9.23;6.50;;;;;;;9.17;100.00;97681.34;5040513;28;20033;-84
2022/04/07 05:56:08;;;;;;;9.75;6.75;;;;;;;9.22;100.00;97674.84;5053691;28;20116;-78
2022/04/07 05:58:33;;;;;;;13.00;7.32;;;;;;;9.35;100.00;97681.75;5051949;28;20443;-78
2022/04/07 06:00:58;;;;;;;10.00;6.97;;;;;;;9.46;100.00;97674.84;5052759;28;20120;-84
2022/04/07 06:03:24;;;;;;;8.98;6.20;;;;;;;9.59;100.00;97666.16;5051978;28;20028;-84
2022/04/07 06:05:53;;;;;;;7.90;6.40;;;;;;;9.58;100.00;97644.53;5053312;28;20031;-84
2022/04/07 06:08:21;;;;;;;8.23;6.53;;;;;;;9.80;100.00;97664.53;5053099;28;20033;-84
2022/04/07 06:10:47;;;;;;;8.57;6.03;;;;;;;9.86;100.00;97645.91;5051993;28;20017;-84
2022/04/07 06:13:14;;;;;;;9.77;6.53;;;;;;;10.18;100.00;97638.22;5052084;28;20029;-85
2022/04/07 06:15:40;;;;;;;12.05;6.78;;;;;;;10.53;98.67;97655.50;5052054;28;20381;-84
2022/04/07 06:18:05;;;;;;;8.43;6.18;;;;;;;10.64;97.66;97659.88;5053463;28;20036;-84
2022/04/07 06:20:31;;;;;;;8.73;6.68;;;;;;;10.67;97.20;97639.63;5030161;28;20041;-84
2022/04/07 06:22:57;;;;;;;7.97;6.40;;;;;;;10.89;96.45;97654.38;5030630;28;20168;-83
2022/04/07 06:25:22;;;;;;;11.60;7.05;;;;;;;10.88;95.70;97655.34;5030219;28;20045;-83
2022/04/07 06:27:48;;;;;;;9.48;6.45;;;;;;;11.05;95.83;97663.59;5030525;28;20033;-83
2022/04/07 06:30:19;;;;;;;12.98;7.10;;;;;;;13.35;91.48;97658.00;5013697;28;20040;-83
2022/04/07 06:32:46;;;;;;;7.72;5.93;;;;;;;15.28;83.30;97625.00;5030168;28;20049;-83
2022/04/07 06:35:14;;;;;;;9.00;5.95;;;;;;;16.26;78.85;97641.47;5030378;28;20124;-84
2022/04/07 06:37:54;;;;;;;6.60;5.25;;;;;;;17.07;75.81;97633.09;5030449;28;20040;-84
2022/04/07 06:40:21;;;;;;;8.55;5.70;;;;;;;17.81;71.95;97638.41;5030412;28;20087;-84
2022/04/07 06:42:51;;;;;;;8.93;5.53;;;;;;;18.62;69.52;97630.28;5013627;28;20030;-80
2022/04/07 06:45:18;;;;;;;6.57;4.60;;;;;;;19.82;63.42;97624.59;5030227;28;20034;-83
2022/04/07 06:47:43;;;;;;;7.60;4.75;;;;;;;19.97;60.73;97612.22;5013256;28;20123;-83
2022/04/07 06:50:11;;;;;;;6.68;5.18;;;;;;;20.52;58.89;97615.44;5029820;28;22011;-83
2022/04/07 06:52:37;;;;;;;6.32;4.50;;;;;;;22.50;52.84;97616.44;5051117;28;20493;-84
2022/04/07 06:55:03;;;;;;;5.90;3.90;;;;;;;24.74;45.54;97603.50;5052375;28;20040;-84
2022/04/07 06:57:29;;;;;;;11.38;4.75;;;;;;;26.41;40.41;97608.41;5050925;28;20056;-82
2022/04/07 06:59:54;;;;;;;8.27;4.55;;;;;;;28.30;34.95;97600.72;5052172;28;20467;-85
2022/04/07 07:02:19;;;;;;;6.72;3.90;;;;;;;28.73;32.59;97599.47;5050953;28;20017;-84
2022/04/07 07:04:45;;;;;;;7.97;4.10;;;;;;;28.10;32.92;97599.22;5051986;28;20116;-85
2022/04/07 07:07:11;;;;;;;5.47;3.13;;;;;;;28.02;32.64;97588.03;5052313;28;20029;-84
2022/04/07 07:09:37;;;;;;;3.95;2.80;;;;;;;29.70;29.93;97595.91;5050795;28;20035;-85
2022/04/07 07:12:03;;;;;;;7.68;2.80;;;;;;;31.80;26.05;97581.97;5051848;28;20057;-85
2022/04/07 07:14:29;;;;;;;3.97;2.67;;;;;;;33.02;23.97;97578.31;5051880;28;20079;-86
2022/04/07 07:16:54;;;;;;;3.28;2.53;;;;;;;33.66;22.31;97561.63;5050732;28;20029;-85
2022/04/07 07:19:26;;;;;;;4.82;2.53;;;;;;;34.72;21.35;97573.28;5052016;28;20032;-85
2022/04/07 07:21:52;;;;;;;3.88;3.03;;;;;;;35.27;20.25;97564.28;5052113;28;20056;-85
2022/04/07 07:24:17;;;;;;;4.82;2.53;;;;;;;35.61;20.01;97551.59;5050654;28;20124;-85
2022/04/07 07:26:42;;;;;;;4.32;2.78;;;;;;;36.35;19.03;97544.06;5051612;28;20110;-86
2022/04/07 07:29:08;;;;;;;3.72;2.70;;;;;;;37.16;18.40;97535.94;5051789;28;20033;-85
2022/04/07 07:31:35;;;;;;;4.47;3.05;;;;;;;37.57;17.77;97538.00;5050066;28;20021;-85
2022/04/07 07:34:00;;;;;;;4.68;2.88;;;;;;;37.62;17.59;97546.06;5050655;28;20127;-85
2022/04/07 07:36:26;;;;;;;4.78;2.47;;;;;;;37.34;17.52;97535.13;5050666;28;20136;-85
2022/04/07 07:38:51;;;;;;;4.20;2.63;;;;;;;37.34;17.18;97518.03;5051749;28;20409;-85
2022/04/07 07:41:17;;;;;;;3.15;2.65;;;;;;;36.48;17.80;97526.31;5052053;28;20033;-84
2022/04/07 07:43:42;;;;;;;3.22;2.50;;;;;;;36.54;17.72;97522.44;5051764;28;20103;-84
2022/04/07 07:46:07;;;;;;;6.15;2.63;;;;;;;36.74;17.46;97510.47;5050349;28;20439;-84
2022/04/07 07:48:33;;;;;;;6.68;2.78;;;;;;;36.79;17.45;97506.88;5051710;28;20031;-83
2022/04/07 07:50:58;;;;;;;3.60;2.50;;;;;;;36.81;17.74;97512.84;5053838;28;20029;-88
2022/04/07 07:53:25;;;;;;;3.72;2.30;;;;;;;36.90;17.54;97513.78;5053771;28;20052;-86
2022/04/07 07:55:50;;;;;;;2.47;2.28;;;;;;;36.88;17.50;97518.72;5053449;28;20025;-85
2022/04/07 07:58:16;;;;;;;3.42;2.33;;;;;;;36.19;18.19;97510.91;5053593;28;20027;-89
2022/04/07 08:00:42;;;;;;;3.22;2.22;;;;;;;35.43;18.64;97508.94;5053254;28;20029;-87
2022/04/07 08:03:07;;;;;;;8.55;2.78;;;;;;;32.85;20.54;97510.28;5071756;28;20064;-88
2022/04/07 08:05:33;;;;;;;2.90;2.50;;;;;;;29.65;23.51;97515.34;5053455;28;20028;-87
2022/04/07 08:07:59;;;;;;;5.43;2.20;;;;;;;26.69;27.01;97493.91;5053643;28;20065;-88
2022/04/07 08:10:24;;;;;;;3.33;2.38;;;;;;;24.84;29.80;97515.16;5053618;28;20021;-91
2022/04/07 08:12:50;;;;;;;3.30;2.50;;;;;;;23.35;32.53;97500.88;5053399;28;20028;-86
2022/04/07 08:15:15;;;;;;;3.63;2.30;;;;;;;22.16;34.96;97514.69;5071307;28;20353;-87
2022/04/07 08:17:40;;;;;;;5.43;2.55;;;;;;;21.10;37.17;97510.44;5053466;28;20024;-88
2022/04/07 08:20:07;;;;;;;4.80;2.63;;;;;;;20.53;38.30;97504.22;5053342;28;20025;-89
2022/04/07 08:22:33;;;;;;;3.45;2.33;;;;;;;20.11;39.81;97508.34;5053413;28;20086;-88
2022/04/07 08:24:59;;;;;;;4.55;2.58;;;;;;;19.82;40.60;97509.19;5057269;28;20028;-88
2022/04/07 08:27:24;;;;;;;5.93;2.70;;;;;;;19.62;41.70;97502.81;5075243;28;20031;-87
2022/04/07 08:29:50;;;;;;;4.47;2.40;;;;;;;19.47;43.06;97494.00;5056999;28;20028;-87
2022/04/07 08:32:16;;;;;;;5.35;3.38;;;;;;;19.39;43.63;97485.19;5057426;28;20092;-87
2022/04/07 08:34:41;;;;;;;4.38;2.70;;;;;;;19.20;44.39;97490.97;5057080;28;20024;-87
2022/04/07 08:37:07;;;;;;;4.32;2.50;;;;;;;18.96;44.82;97484.06;5057232;28;20119;-84
2022/04/07 08:39:32;;;;;;;4.85;2.58;;;;;;;18.81;45.93;97477.94;5074791;28;20074;-84
2022/04/07 08:41:59;;;;;;;4.55;2.90;;;;;;;18.83;46.62;97484.66;5057047;28;20090;-84
2022/04/07 08:44:31;;;;;;;2.60;2.40;;;;;;;18.76;45.73;97480.28;5056766;28;20408;-86
2022/04/07 08:46:57;;;;;;;2.63;2.40;;;;;;;18.64;46.34;97469.28;5057015;28;20025;-87
2022/04/07 08:49:24;;;;;;;3.20;2.17;;;;;;;18.60;46.04;97468.81;5056741;28;20044;-87
2022/04/07 08:51:53;;;;;;;3.08;2.33;;;;;;;18.48;45.65;97469.41;5056693;28;20067;-88
2022/04/07 08:54:19;;;;;;;3.42;1.80;;;;;;;18.49;45.80;97448.13;5056868;28;20050;-85
2022/04/07 08:56:46;;;;;;;2.75;2.20;;;;;;;18.66;45.39;97462.00;5074687;28;20035;-85
2022/04/07 08:59:11;;;;;;;2.70;2.30;;;;;;;18.60;45.22;97460.91;5074600;28;20035;-84
2022/04/07 09:01:36;;;;;;;3.40;2.17;;;;;;;18.61;45.27;97459.91;5056484;28;20107;-84
2022/04/07 09:04:02;;;;;;;3.75;2.00;;;;;;;18.73;44.90;97452.44;5074687;28;20047;-84
2022/04/07 09:06:29;;;;;;;2.67;2.20;;;;;;;18.75;44.88;97444.34;5056563;28;20021;-84
2022/04/07 09:08:55;;;;;;;2.97;2.25;;;;;;;18.69;44.87;97438.78;5056258;28;20074;-84
2022/04/07 09:11:21;;;;;;;2.45;2.00;;;;;;;18.80;44.72;97452.56;5012046;28;20034;-86
2022/04/07 09:13:47;;;;;;;2.60;1.92;;;;;;;18.72;45.15;97450.00;5011840;28;20059;-85
2022/04/07 09:16:15;;;;;;;2.45;2.25;;;;;;;18.49;44.97;97447.31;4995497;28;20125;-86
2022/04/07 09:18:42;;;;;;;2.35;1.92;;;;;;;18.43;45.32;97446.22;4995422;28;20034;-86
2022/04/07 09:21:17;;;;;;;3.80;2.30;;;;;;;18.36;44.98;97439.97;4995554;28;20076;-86
2022/04/07 09:23:43;;;;;;;3.28;2.15;;;;;;;18.28;44.77;97435.56;4995326;28;20026;-85
2022/04/07 09:26:13;;;;;;;2.30;2.10;;;;;;;18.19;44.31;97428.72;4995480;28;20044;-86
2022/04/07 09:28:38;;;;;;;3.45;1.98;;;;;;;18.33;44.62;97445.59;4995372;28;20030;-85
2022/04/07 09:31:04;;;;;;;2.80;2.05;;;;;;;18.16;44.71;97422.00;4995426;28;20449;-86
2022/04/07 09:33:30;;;;;;;3.35;2.60;;;;;;;18.02;45.23;97429.81;5011520;28;20771;-83
2022/04/07 09:36:19;;;;;;;1.70;1.60;;;;;;;17.71;44.80;97426.13;4995065;28;20120;-83
2022/04/07 09:38:50;;;;;;;3.43;2.30;;;;;;;17.28;45.91;97406.38;4995111;28;20519;-83
2022/04/07 09:41:15;;;;;;;2.35;2.15;;;;;;;17.18;47.38;97414.44;4998795;28;20038;-87
2022/04/07 09:43:51;;;;;;;2.25;2.05;;;;;;;17.01;47.70;97417.28;5073628;28;20031;-86
2022/04/07 09:46:18;;;;;;;3.88;2.72;;;;;;;16.71;48.12;97419.56;5073958;28;20052;-84
2022/04/07 09:49:05;;;;;;;2.90;2.50;;;;;;;16.57;49.25;97425.47;5073400;28;20056;-85
2022/04/07 09:51:47;;;;;;;2.75;2.47;;;;;;;16.34;49.66;97393.75;5055809;28;20025;-87
2022/04/07 09:54:16;;;;;;;3.05;2.55;;;;;;;16.18;50.07;97405.06;5055766;28;20077;-86
2022/04/07 09:56:43;;;;;;;2.63;2.38;;;;;;;15.98;50.91;97404.53;5056223;28;20029;-83
2022/04/07 09:59:09;;;;;;;3.20;2.40;;;;;;;15.93;51.56;97399.78;5031177;28;20044;-84
2022/04/07 10:01:38;;;;;;;2.78;2.05;;;;;;;15.84;51.65;97398.09;5014510;28;20172;-85
2022/04/07 10:04:05;;;;;;;4.93;2.28;;;;;;;15.81;52.13;97389.72;5014378;28;20037;-88
2022/04/07 10:06:34;;;;;;;3.38;2.40;;;;;;;15.77;52.65;97394.47;5031350;28;20080;-90
2022/04/07 10:09:02;;;;;;;2.75;1.92;;;;;;;15.68;52.37;97358.69;5014754;28;20041;-87
2022/04/07 10:11:30;;;;;;;3.83;2.80;;;;;;;15.86;51.91;97383.00;5014457;28;20103;-88
2022/04/07 10:13:57;;;;;;;2.38;2.17;;;;;;;16.00;51.38;97373.69;5014283;28;20868;-88
2022/04/07 10:16:22;;;;;;;3.30;2.30;;;;;;;16.14;50.72;97351.25;5011331;28;20080;-88
2022/04/07 10:18:55;;;;;;;2.45;2.13;;;;;;;16.39;51.00;97352.91;4994634;28;20090;-87
2022/04/07 10:21:46;;;;;;;4.03;2.30;;;;;;;16.53;50.05;97346.16;4994514;28;20044;-87
2022/04/07 10:24:29;;;;;;;3.83;2.03;;;;;;;16.54;50.17;97337.28;4933424;29;20448;-89
2022/04/07 10:26:57;;;;;;;3.28;2.42;;;;;;;16.48;50.88;97309.06;4917563;29;20036;-89
2022/04/07 10:29:24;;;;;;;4.63;2.22;;;;;;;16.58;50.52;97303.59;4940472;28;20061;-88
2022/04/07 10:32:10;;;;;;;2.97;2.15;;;;;;;16.71;48.99;97319.69;4955353;28;20038;-88
2022/04/07 10:34:42;;;;;;;3.88;2.03;;;;;;;16.88;48.18;97333.66;4955452;28;20215;-85
2022/04/07 10:37:09;;;;;;;3.15;2.53;;;;;;;17.11;47.00;97300.41;4955320;28;20034;-85
2022/04/07 10:39:39;;;;;;;3.90;2.00;;;;;;;17.28;46.55;97310.84;4971957;28;20047;-87
2022/04/07 10:42:05;;;;;;;4.60;2.23;;;;;;;17.34;46.19;97291.75;4955555;28;20043;-88
2022/04/07 10:44:33;;;;;;;4.47;1.95;;;;;;;17.45;45.70;97292.19;4971906;28;20039;-90
2022/04/07 10:47:05;;;;;;;2.08;1.75;;;;;;;17.61;45.53;97286.03;4961115;28;20057;-89
2022/04/07 10:49:33;;;;;;;6.80;4.68;;;;;;;17.79;45.54;97284.94;4978687;28;20049;-87
2022/04/07 10:52:02;;;;;;;3.50;2.97;;;;;;;17.84;45.52;97259.72;4984521;28;20033;-85
2022/04/07 10:54:28;;;;;;;2.22;1.85;;;;;;;18.01;45.22;97262.25;4996353;28;20052;-85
2022/04/07 10:56:56;;;;;;;2.88;2.10;;;;;;;18.00;44.61;97257.97;5062541;28;20028;-85
2022/04/07 10:59:34;;;;;;;3.00;2.15;;;;;;;18.03;45.10;97271.59;5054575;28;20146;-84
2022/04/07 11:02:10;;;;;;;2.35;2.00;;;;;;;18.09;44.93;97270.09;5072010;28;20029;-84
2022/04/07 11:04:36;;;;;;;3.50;3.20;;;;;;;18.00;44.64;97261.44;5073513;28;20387;-85
2022/04/07 11:07:04;;;;;;;2.42;1.90;;;;;;;17.85;43.97;97271.06;5074011;28;20084;-85
2022/04/07 11:09:50;;;;;;;4.15;2.00;;;;;;;17.78;44.74;97255.19;5074265;28;20039;-85
2022/04/07 11:12:25;;;;;;;4.97;3.42;;;;;;;17.87;44.78;97256.75;5092266;28;20028;-85
2022/04/07 11:14:54;;;;;;;4.13;3.33;;;;;;;17.78;44.27;97226.22;5074072;28;20361;-85
2022/04/07 11:17:22;;;;;;;3.55;2.50;;;;;;;17.84;44.08;97235.22;5070976;28;20028;-82
2022/04/07 11:20:13;;;;;;;4.00;2.85;;;;;;;17.64;44.72;97235.63;5064543;28;20035;-85
2022/04/07 11:22:52;;;;;;;7.75;5.80;;;;;;;17.73;44.71;97238.22;5081216;28;20123;-85
2022/04/07 11:25:51;;;;;;;6.50;4.55;;;;;;;17.70;44.39;97220.97;5079536;28;20046;-84
2022/04/07 11:28:24;;;;;;;2.80;2.33;;;;;;;17.38;44.21;97217.53;5054044;28;20047;-85